Bullard, TX

11:03 AM CDT on July 07, 2015 (GMT -0500)
Pecan Valley Ranch | | Change Station
CLOSE
Current Station
Personal Weather Station
Location: Bullard, TX
Elevation: 466 ft
Nearby Weather Stations
Active Advisory: Flood Warning Active Notice: Record Report

Elev 466 ft 32.14 °N, 95.29 °W | Updated 1 second ago

Overcast
Overcast
88.9 °F
Feels Like 100 °F
N
5.8
Wind Variable Wind from West
Gusts 9.8 mph

Today
High -- | Low -- °F
--% Chance of Precip.
Yesterday
High -- | Low -- °F
Precip. -- in
6:21 AM 8:31 PM
Waning Gibbous, 63% visible
Pressure 30.00 in
Visibility 10.0 miles
Clouds Few 2300 ft
Scattered Clouds 3000 ft
Scattered Clouds 3700 ft
Heat Index 100 °F
Dew Point 76 °F
Humidity 65%
Rainfall 0.00 in
Snow Depth Not available.
UV 6.0 out of 12
Pollen 3.70 out of 12
Air Quality Not available.
Flu Activity Not available.
METAR KTYR 071553Z 22015G19KT 10SM FEW023 SCT030 SCT037 31/23 A3003 RMK AO2 PK WND 20026/1536 SLP159 T03060233

More Conditions Fewer Conditions

Pressure 30.00 in
Visibility 10.0 miles
Clouds Few 2300 ft
Scattered Clouds 3000 ft
Scattered Clouds 3700 ft
Heat Index 100 °F
Dew Point 76 °F
Humidity 65%
Rainfall 0.00 in
Snow Depth Not available.
UV 6.0 out of 12
Pollen 3.70 out of 12
Air Quality Not available.
Flu Activity Not available.
METAR KTYR 071553Z 22015G19KT 10SM FEW023 SCT030 SCT037 31/23 A3003 RMK AO2 PK WND 20026/1536 SLP159 T03060233

More Conditions Fewer Conditions

10-Day Weather Forecast

×

Almanac

Astronomy

Jul. 07, 2015 Rise Set
Actual Time
Civil Twilight
Nautical Twilight
Astronomical Twilight
Moon
Length of Visible Light
Length of Day
Tomorrow will be .
, % of the Moon is Illuminated

Today's Extremes

State Highs State Lows

Community

WunderPhotos

Upload Photos

1,835,825 photos uploaded!

WunderBlogs® & News

Nearby

Air Quality

  Air Quality AQ Index Pollutant
Not available.

Snow Depth

Station Depth Elevation

Earthquake Activity

City Distance Mag. Time & Date
Minimum magnitude displayed is 2.5.

Coastal Water Temperatures

Place Temperature

Stations

Nearby Weather Stations

Station Location Temp. Windchill Dew Point Humidity Wind Precip. Elev Updated Type
                   
Flood Warning
Statement as of 11:40 AM CDT on July 06, 2015

... The Flood Warning extended until Friday evening... the Flood
Warning continues for
the Sabine River near Mineola.
* Until Friday evening... or until the warning is cancelled.
* At 11:15 am Monday the stage was 15.9 feet.
* Minor flooding is occurring and minor flooding is forecast.
* Flood stage is 14.0 feet.
* Forecast... the river will continue to fall to below flood stage by
early Friday morning.
* Impact... at 16.0 feet... expect flooding of low river bottoms with
secondary roadways along with picnic and recreational areas
becoming inundated as well. Ranchers should move cattle and
equipment to higher ground.


Lat... Lon 3278 9574 3263 9535 3257 9535 3259 9550 3273 9574